createdAt,value
2017-08-24T00:03:08.092Z,5.60
2017-08-24T00:08:10.749Z,5.70
2017-08-24T00:13:12.739Z,4.97
2017-08-24T00:18:14.696Z,5.20
2017-08-24T00:23:16.638Z,5.50
2017-08-24T00:28:18.560Z,5.63
2017-08-24T00:33:20.496Z,5.70
2017-08-24T00:38:22.455Z,9.10
2017-08-24T00:43:24.528Z,7.30
2017-08-24T00:48:26.575Z,6.43
2017-08-24T00:53:28.584Z,5.90
2017-08-24T00:58:30.541Z,6.50
2017-08-24T01:03:32.506Z,6.10
2017-08-24T01:08:34.525Z,5.80
2017-08-24T01:13:36.480Z,5.90
2017-08-24T01:18:38.466Z,5.60
2017-08-24T01:23:40.708Z,6.33
2017-08-24T01:28:42.707Z,6.80
2017-08-24T01:33:44.660Z,5.93
2017-08-24T01:38:46.593Z,6.23
2017-08-24T01:43:48.523Z,6.70
2017-08-24T01:48:50.444Z,6.70
2017-08-24T01:53:52.393Z,5.97
2017-08-24T01:58:54.308Z,7.20
2017-08-24T02:03:56.271Z,5.90
2017-08-24T02:08:58.252Z,6.00
2017-08-24T02:14:00.164Z,5.90
2017-08-24T02:19:02.094Z,6.00
2017-08-24T02:24:04.072Z,6.37
2017-08-24T02:29:06.029Z,5.77
2017-08-24T02:34:07.999Z,6.60
2017-08-24T02:39:09.982Z,6.90
2017-08-24T02:44:11.952Z,6.50
2017-08-24T02:49:18.914Z,7.30
2017-08-24T02:54:24.238Z,7.87
2017-08-24T02:59:27.545Z,7.63
2017-08-24T03:04:29.768Z,7.70
2017-08-24T03:09:32.919Z,7.50
2017-08-24T03:14:37.530Z,8.40
2017-08-24T03:19:41.199Z,9.37
2017-08-24T03:24:44.247Z,8.63
2017-08-24T03:29:46.616Z,8.73
2017-08-24T03:34:48.974Z,9.93
2017-08-24T03:39:51.320Z,9.53
2017-08-24T03:44:53.571Z,9.37
2017-08-24T03:49:56.908Z,9.80
2017-08-24T03:54:59.154Z,9.80
2017-08-24T04:00:01.401Z,10.43
2017-08-24T04:05:03.680Z,10.67
2017-08-24T04:10:07.336Z,10.40
2017-08-24T04:15:10.771Z,10.90
2017-08-24T04:20:13.110Z,12.90
2017-08-24T04:25:15.367Z,12.93
2017-08-24T04:30:17.548Z,16.40
2017-08-24T04:35:19.836Z,19.50
2017-08-24T04:40:22.135Z,21.50
2017-08-24T04:45:24.632Z,22.57
2017-08-24T04:50:26.948Z,23.90
2017-08-24T04:55:29.197Z,26.90
2017-08-24T05:00:31.423Z,25.80
2017-08-24T05:05:33.879Z,26.07
2017-08-24T05:10:36.512Z,26.20
2017-08-24T05:15:38.753Z,26.60
2017-08-24T05:20:41.016Z,24.70
2017-08-24T05:25:43.246Z,24.43
2017-08-24T05:30:45.590Z,24.43
2017-08-24T05:35:47.917Z,28.57
2017-08-24T05:40:50.229Z,30.40
2017-08-24T05:45:52.531Z,31.83
2017-08-24T05:50:55.006Z,34.03
2017-08-24T05:55:57.264Z,31.40
2017-08-24T06:00:59.576Z,36.60
2017-08-24T06:06:01.738Z,38.80
2017-08-24T06:11:03.973Z,40.60
2017-08-24T06:16:06.318Z,42.93
2017-08-24T06:21:08.713Z,43.30
2017-08-24T06:26:11.000Z,40.20
2017-08-24T06:31:13.321Z,41.37
2017-08-24T06:36:15.520Z,49.00
2017-08-24T06:41:17.849Z,46.47
2017-08-24T06:46:20.075Z,45.30
2017-08-24T06:51:22.334Z,47.40
2017-08-24T06:56:24.510Z,46.03
2017-08-24T07:01:26.793Z,47.10
2017-08-24T07:06:29.020Z,44.37
2017-08-24T07:11:31.603Z,43.20
2017-08-24T07:16:34.035Z,39.93
2017-08-24T07:21:36.738Z,38.40
2017-08-24T07:26:39.499Z,35.83
2017-08-24T07:31:49.373Z,34.17
2017-08-24T07:36:58.344Z,34.00
2017-08-24T07:42:08.006Z,31.43
2017-08-24T07:47:16.463Z,32.90
2017-08-24T07:52:24.076Z,31.13
2017-08-24T07:57:28.215Z,30.83
2017-08-24T08:02:30.926Z,30.93
2017-08-24T08:07:33.266Z,30.37
2017-08-24T08:12:35.586Z,32.30
2017-08-24T08:17:38.061Z,31.03
2017-08-24T08:22:40.489Z,30.33
2017-08-24T08:27:42.911Z,27.70
2017-08-24T08:32:45.219Z,29.90
2017-08-24T08:37:47.623Z,29.70
2017-08-24T08:42:49.918Z,28.30
2017-08-24T08:47:52.167Z,28.17
2017-08-24T08:52:54.440Z,25.70
2017-08-24T08:57:56.851Z,26.97
2017-08-24T09:02:59.128Z,27.53
2017-08-24T09:08:01.457Z,25.23
2017-08-24T09:13:03.982Z,26.03
2017-08-24T09:18:06.253Z,27.03
2017-08-24T09:23:08.471Z,26.83
2017-08-24T09:28:10.679Z,26.00
2017-08-24T09:33:12.930Z,26.50
2017-08-24T09:38:15.346Z,27.23
2017-08-24T09:43:17.792Z,23.37
2017-08-24T09:48:20.118Z,21.97
2017-08-24T09:53:22.439Z,21.50
2017-08-24T09:58:24.772Z,21.77
2017-08-24T10:03:27.056Z,21.60
2017-08-24T10:08:29.332Z,21.20
2017-08-24T10:13:31.652Z,23.13
2017-08-24T10:18:34.047Z,23.73
2017-08-24T10:23:36.329Z,23.47
2017-08-24T10:28:38.809Z,23.03
2017-08-24T10:33:41.241Z,20.57
2017-08-24T10:38:43.475Z,21.60
2017-08-24T10:43:45.847Z,19.77
2017-08-24T10:48:48.295Z,16.50
2017-08-24T10:53:50.503Z,17.57
2017-08-24T10:58:52.706Z,16.70
2017-08-24T11:03:55.382Z,17.50
2017-08-24T11:08:57.809Z,16.83
2017-08-24T11:14:00.008Z,16.60
2017-08-24T11:19:02.314Z,16.53
2017-08-24T11:24:04.604Z,17.63
2017-08-24T11:29:06.919Z,14.77
2017-08-24T11:34:09.276Z,16.20
2017-08-24T11:39:11.536Z,17.10
2017-08-24T11:44:13.798Z,17.80
2017-08-24T11:49:16.036Z,19.63
2017-08-24T11:54:19.050Z,19.60
2017-08-24T11:59:24.488Z,21.10
2017-08-24T12:04:27.261Z,19.80
2017-08-24T12:09:30.426Z,20.70
2017-08-24T12:14:32.613Z,20.70
2017-08-24T12:19:34.986Z,21.73
2017-08-24T12:24:37.309Z,18.87
2017-08-24T12:29:39.743Z,19.23
2017-08-24T12:34:42.144Z,19.77
2017-08-24T12:39:44.551Z,17.87
2017-08-24T12:44:46.810Z,17.23
2017-08-24T12:49:49.047Z,16.00
2017-08-24T12:54:52.560Z,15.00
2017-08-24T12:59:55.913Z,15.83
2017-08-24T13:04:58.428Z,15.20
2017-08-24T13:10:01.795Z,13.03
2017-08-24T13:15:05.387Z,14.20
2017-08-24T13:20:07.846Z,12.53
2017-08-24T13:25:10.020Z,12.50
2017-08-24T13:30:12.310Z,12.73
2017-08-24T13:35:14.490Z,13.30
2017-08-24T13:40:16.647Z,13.47
2017-08-24T13:45:19.038Z,12.63
2017-08-24T13:50:21.221Z,15.10
2017-08-24T13:55:23.413Z,13.77
2017-08-24T14:00:25.614Z,13.43
2017-08-24T14:05:27.865Z,12.27
2017-08-24T14:10:30.104Z,13.00
2017-08-24T14:15:32.528Z,13.40
2017-08-24T14:20:34.843Z,13.03
2017-08-24T14:25:39.787Z,12.63
2017-08-24T14:30:45.533Z,13.93
2017-08-24T14:35:47.749Z,13.60
2017-08-24T14:40:50.019Z,13.73
2017-08-24T14:45:53.073Z,13.20
2017-08-24T14:50:55.384Z,13.47
2017-08-24T14:55:57.612Z,14.17
2017-08-24T15:01:00.758Z,16.00
2017-08-24T15:06:03.082Z,14.37
2017-08-24T15:11:05.336Z,16.10
2017-08-24T15:16:07.659Z,14.83
2017-08-24T15:21:09.931Z,14.30
2017-08-24T15:26:12.147Z,13.47
2017-08-24T15:31:14.612Z,12.37
2017-08-24T15:36:16.987Z,13.40
2017-08-24T15:41:19.380Z,12.57
2017-08-24T15:46:21.624Z,14.13
2017-08-24T15:51:23.998Z,17.27
2017-08-24T15:56:26.299Z,18.23
2017-08-24T16:01:28.636Z,17.93
2017-08-24T16:06:34.032Z,19.23
2017-08-24T16:11:36.358Z,20.63
2017-08-24T16:16:38.734Z,17.60
2017-08-24T16:21:41.183Z,16.67
2017-08-24T16:26:43.546Z,19.17
2017-08-24T16:31:45.789Z,18.90
2017-08-24T16:36:48.004Z,17.40
2017-08-24T16:41:50.499Z,18.00
2017-08-24T16:46:52.748Z,17.90
2017-08-24T16:51:55.102Z,19.57
2017-08-24T16:56:57.710Z,18.27
2017-08-24T17:01:59.963Z,18.90
2017-08-24T17:07:02.249Z,19.13
2017-08-24T17:12:04.500Z,20.90
2017-08-24T17:17:06.689Z,22.67
2017-08-24T17:22:08.864Z,20.40
2017-08-24T17:27:11.465Z,23.80
2017-08-24T17:32:13.676Z,23.90
2017-08-24T17:37:16.008Z,26.27
2017-08-24T17:42:18.376Z,24.23
2017-08-24T17:47:20.809Z,26.10
2017-08-24T17:52:23.400Z,25.83
2017-08-24T17:57:25.773Z,27.50
2017-08-24T18:02:28.099Z,30.07
2017-08-24T18:07:30.521Z,31.17
2017-08-24T18:12:32.743Z,31.90
2017-08-24T18:17:40.495Z,32.53
2017-08-24T18:22:45.062Z,33.10
2017-08-24T18:27:47.501Z,32.77
2017-08-24T18:32:49.745Z,33.40
2017-08-24T18:37:52.000Z,33.17
2017-08-24T18:42:54.196Z,33.17
2017-08-24T18:47:56.595Z,31.80
2017-08-24T18:52:58.859Z,32.50
2017-08-24T18:58:01.204Z,32.03
2017-08-24T19:03:04.538Z,32.30
2017-08-24T19:08:07.307Z,30.60
2017-08-24T19:13:10.820Z,32.77
2017-08-24T19:18:13.418Z,32.33
2017-08-24T19:23:16.026Z,32.60
2017-08-24T19:28:18.286Z,32.80
2017-08-24T19:33:20.491Z,29.03
2017-08-24T19:38:22.868Z,29.77
2017-08-24T19:43:25.246Z,28.20
2017-08-24T19:48:27.627Z,27.20
2017-08-24T19:53:30.203Z,26.23
2017-08-24T19:58:32.618Z,28.57
2017-08-24T20:03:35.134Z,27.17
2017-08-24T20:08:37.473Z,29.07
2017-08-24T20:13:40.883Z,27.53
2017-08-24T20:18:43.120Z,28.47
2017-08-24T20:23:45.371Z,28.20
2017-08-24T20:28:47.691Z,28.37
2017-08-24T20:33:49.986Z,27.77
2017-08-24T20:38:52.446Z,28.93
2017-08-24T20:43:55.720Z,29.47
2017-08-24T20:48:58.000Z,28.40
2017-08-24T20:54:00.249Z,26.63
2017-08-24T20:59:02.455Z,28.03
2017-08-24T21:04:04.853Z,29.63
2017-08-24T21:09:07.104Z,27.90
2017-08-24T21:14:09.524Z,27.60
2017-08-24T21:19:11.885Z,27.60
2017-08-24T21:24:14.213Z,26.10
2017-08-24T21:29:16.530Z,26.70
2017-08-24T21:34:18.788Z,26.57
2017-08-24T21:39:21.177Z,23.90
2017-08-24T21:44:23.611Z,24.60
2017-08-24T21:49:26.038Z,25.33
2017-08-24T21:54:28.494Z,24.17
2017-08-24T21:59:30.774Z,24.10
2017-08-24T22:04:33.038Z,24.10
2017-08-24T22:09:35.336Z,23.47
2017-08-24T22:14:37.930Z,23.60
2017-08-24T22:19:40.190Z,22.20
2017-08-24T22:24:42.433Z,21.07
2017-08-24T22:29:44.636Z,21.73
2017-08-24T22:34:46.985Z,21.27
2017-08-24T22:39:49.261Z,20.80
2017-08-24T22:44:51.649Z,18.43
2017-08-24T22:49:53.973Z,20.70
2017-08-24T22:55:02.260Z,22.63
2017-08-24T23:00:10.781Z,18.87
2017-08-24T23:05:13.511Z,19.53
2017-08-24T23:10:16.159Z,19.83
2017-08-24T23:15:18.735Z,19.70
2017-08-24T23:20:21.207Z,18.50
2017-08-24T23:25:23.863Z,18.67
2017-08-24T23:30:26.180Z,17.87
2017-08-24T23:35:28.659Z,19.27
2017-08-24T23:40:31.082Z,18.70
2017-08-24T23:45:33.373Z,16.80
2017-08-24T23:50:35.670Z,16.03
2017-08-24T23:55:38.021Z,15.70
